createdAt,value
2023-05-14T00:00:32.332Z,98575.13
2023-05-14T00:02:58.877Z,98577.75
2023-05-14T00:05:25.576Z,98569.84
2023-05-14T00:07:51.902Z,98557.91
2023-05-14T00:10:18.244Z,98565.47
2023-05-14T00:12:44.570Z,98568.88
2023-05-14T00:15:10.911Z,98558.94
2023-05-14T00:17:37.660Z,98554.69
2023-05-14T00:20:05.683Z,98555.56
2023-05-14T00:22:32.009Z,98556.84
2023-05-14T00:24:58.391Z,98554.06
2023-05-14T00:27:24.758Z,98560.75
2023-05-14T00:29:51.107Z,98557.91
2023-05-14T00:32:17.447Z,98564.31
2023-05-14T00:34:43.790Z,98560.13
2023-05-14T00:37:10.201Z,98556.50
2023-05-14T00:39:36.564Z,98560.53
2023-05-14T00:42:02.946Z,98540.44
2023-05-14T00:44:29.285Z,98541.00
2023-05-14T00:46:55.776Z,98550.06
2023-05-14T00:49:22.545Z,98552.28
2023-05-14T00:51:48.980Z,98552.03
2023-05-14T00:54:19.575Z,98552.34
2023-05-14T00:56:46.637Z,98549.09
2023-05-14T00:59:13.658Z,98544.41
2023-05-14T01:01:40.192Z,98536.69
2023-05-14T01:04:07.159Z,98540.97
2023-05-14T01:06:47.052Z,98539.84
2023-05-14T01:09:27.075Z,98538.94
2023-05-14T01:12:02.401Z,98538.38
2023-05-14T01:14:36.379Z,98535.50
2023-05-14T01:17:04.554Z,98547.56
2023-05-14T01:19:42.015Z,98540.88
2023-05-14T01:22:08.658Z,98541.72
2023-05-14T01:24:35.004Z,98540.72
2023-05-14T01:27:15.602Z,98548.00
2023-05-14T01:29:43.821Z,98533.63
2023-05-14T01:32:10.612Z,98542.25
2023-05-14T01:34:37.651Z,98544.56
2023-05-14T01:37:04.312Z,98557.41
2023-05-14T01:39:31.383Z,98553.03
2023-05-14T01:41:58.070Z,98550.81
2023-05-14T01:44:24.634Z,98547.72
2023-05-14T01:46:50.974Z,98544.41
2023-05-14T01:49:17.298Z,98518.50
2023-05-14T01:51:43.696Z,98537.09
2023-05-14T01:54:10.075Z,98541.22
2023-05-14T01:56:36.408Z,98533.72
2023-05-14T01:59:02.861Z,98537.88
2023-05-14T02:01:29.371Z,98519.59
2023-05-14T02:03:55.754Z,98529.28
2023-05-14T02:06:22.154Z,98525.69
2023-05-14T02:08:48.505Z,98531.59
2023-05-14T02:11:14.878Z,98536.03
2023-05-14T02:13:41.196Z,98534.66
2023-05-14T02:16:07.761Z,98530.81
2023-05-14T02:18:34.180Z,98524.84
2023-05-14T02:21:00.513Z,98526.63
2023-05-14T02:23:37.846Z,98527.56
2023-05-14T02:26:07.158Z,98524.34
2023-05-14T02:28:33.492Z,98522.84
2023-05-14T02:31:00.192Z,98527.56
2023-05-14T02:33:26.574Z,98522.25
2023-05-14T02:35:52.946Z,98518.66
2023-05-14T02:38:19.646Z,98523.13
2023-05-14T02:40:45.997Z,98511.81
2023-05-14T02:43:12.324Z,98514.06
2023-05-14T02:45:38.676Z,98517.81
2023-05-14T02:48:05.248Z,98515.69
2023-05-14T02:50:31.635Z,98512.06
2023-05-14T02:52:57.971Z,98509.53
2023-05-14T02:55:24.314Z,98504.97
2023-05-14T02:57:50.659Z,98513.81
2023-05-14T03:00:17.187Z,98508.75
2023-05-14T03:02:43.986Z,98498.75
2023-05-14T03:05:10.876Z,98505.66
2023-05-14T03:07:37.235Z,98501.63
2023-05-14T03:10:03.733Z,98505.66
2023-05-14T03:12:30.077Z,98493.72
2023-05-14T03:14:56.488Z,98499.84
2023-05-14T03:17:22.847Z,98494.66
2023-05-14T03:19:49.174Z,98499.19
2023-05-14T03:22:15.560Z,98501.53
2023-05-14T03:24:41.867Z,98480.78
2023-05-14T03:27:08.206Z,98497.22
2023-05-14T03:29:34.663Z,98482.75
2023-05-14T03:32:01.050Z,98490.53
2023-05-14T03:34:27.405Z,98485.84
2023-05-14T03:36:53.753Z,98478.47
2023-05-14T03:39:20.082Z,98481.19
2023-05-14T03:41:47.318Z,98487.72
2023-05-14T03:44:13.928Z,98482.69
2023-05-14T03:46:40.496Z,98478.81
2023-05-14T03:49:07.275Z,98482.41
2023-05-14T03:51:33.710Z,98488.50
2023-05-14T03:54:00.026Z,98485.97
2023-05-14T03:56:26.357Z,98486.16
2023-05-14T03:58:52.952Z,98498.56
2023-05-14T04:01:19.285Z,98498.25
2023-05-14T04:03:45.776Z,98494.19
2023-05-14T04:06:12.387Z,98492.00
2023-05-14T04:08:38.722Z,98488.34
2023-05-14T04:11:05.108Z,98490.22
2023-05-14T04:13:31.449Z,98479.59
2023-05-14T04:15:57.824Z,98475.25
2023-05-14T04:18:24.202Z,98476.19
2023-05-14T04:20:50.550Z,98484.81
2023-05-14T04:23:16.898Z,98483.09
2023-05-14T04:25:43.224Z,98466.66
2023-05-14T04:28:09.554Z,98479.81
2023-05-14T04:30:36.918Z,98477.06
2023-05-14T04:33:03.394Z,98471.06
2023-05-14T04:35:29.826Z,98477.22
2023-05-14T04:37:56.156Z,98462.41
2023-05-14T04:40:22.764Z,98461.44
2023-05-14T04:42:49.259Z,98463.81
2023-05-14T04:45:15.587Z,98474.59
2023-05-14T04:47:42.018Z,98449.59
2023-05-14T04:50:09.035Z,98462.28
2023-05-14T04:52:35.458Z,98465.09
2023-05-14T04:55:01.905Z,98449.03
2023-05-14T04:57:28.236Z,98456.81
2023-05-14T04:59:54.562Z,98461.47
2023-05-14T05:02:20.911Z,98464.94
2023-05-14T05:04:47.247Z,98454.91
2023-05-14T05:07:13.671Z,98445.09
2023-05-14T05:09:40.221Z,98463.00
2023-05-14T05:12:07.030Z,98452.31
2023-05-14T05:14:33.360Z,98449.66
2023-05-14T05:16:59.713Z,98460.66
2023-05-14T05:19:35.671Z,98454.25
2023-05-14T05:22:09.143Z,98469.59
2023-05-14T05:24:35.508Z,98448.31
2023-05-14T05:27:01.890Z,98467.16
2023-05-14T05:29:28.319Z,98456.16
2023-05-14T05:31:54.678Z,98460.88
2023-05-14T05:34:21.089Z,98438.41
2023-05-14T05:36:47.414Z,98448.88
2023-05-14T05:39:13.757Z,98451.31
2023-05-14T05:41:40.082Z,98450.69
2023-05-14T05:44:06.426Z,98440.03
2023-05-14T05:46:32.778Z,98458.56
2023-05-14T05:48:59.136Z,98457.16
2023-05-14T05:51:25.510Z,98445.38
2023-05-14T05:53:51.862Z,98452.78
2023-05-14T05:56:18.195Z,98453.34
2023-05-14T05:58:44.542Z,98436.28
2023-05-14T06:01:10.903Z,98448.59
2023-05-14T06:03:37.352Z,98456.22
2023-05-14T06:06:03.746Z,98442.56
2023-05-14T06:08:30.125Z,98452.00
2023-05-14T06:10:56.480Z,98447.22
2023-05-14T06:13:22.857Z,98439.59
2023-05-14T06:15:49.224Z,98450.78
2023-05-14T06:18:15.566Z,98438.59
2023-05-14T06:20:41.906Z,98431.78
2023-05-14T06:23:08.584Z,98439.41
2023-05-14T06:25:34.898Z,98442.84
2023-05-14T06:28:02.334Z,98437.88
2023-05-14T06:30:28.735Z,98443.25
2023-05-14T06:32:55.245Z,98437.50
2023-05-14T06:35:21.587Z,98450.47
2023-05-14T06:37:47.940Z,98441.31
2023-05-14T06:40:14.443Z,98444.41
2023-05-14T06:42:40.832Z,98433.66
2023-05-14T06:45:07.572Z,98436.72
2023-05-14T06:47:33.932Z,98433.63
2023-05-14T06:50:00.431Z,98430.97
2023-05-14T06:52:26.828Z,98418.34
2023-05-14T06:54:53.219Z,98418.25
2023-05-14T06:57:19.540Z,98427.44
2023-05-14T06:59:45.861Z,98428.56
2023-05-14T07:02:12.322Z,98428.19
2023-05-14T07:04:38.727Z,98428.13
2023-05-14T07:07:05.055Z,98429.56
2023-05-14T07:09:31.426Z,98419.00
2023-05-14T07:11:57.755Z,98421.09
2023-05-14T07:14:24.096Z,98418.31
2023-05-14T07:16:51.875Z,98421.81
2023-05-14T07:19:18.462Z,98414.06
2023-05-14T07:21:44.844Z,98416.38
2023-05-14T07:24:11.180Z,98397.72
2023-05-14T07:26:37.582Z,98405.25
2023-05-14T07:29:03.927Z,98411.34
2023-05-14T07:31:30.270Z,98396.78
2023-05-14T07:33:56.910Z,98398.44
2023-05-14T07:36:23.784Z,98402.28
2023-05-14T07:38:50.167Z,98403.38
2023-05-14T07:41:16.505Z,98395.03
2023-05-14T07:43:42.948Z,98398.00
2023-05-14T07:46:09.279Z,98401.06
2023-05-14T07:48:35.675Z,98396.81
2023-05-14T07:51:02.059Z,98395.50
2023-05-14T07:53:28.438Z,98386.97
2023-05-14T07:55:54.789Z,98389.19
2023-05-14T07:58:21.148Z,98391.34
2023-05-14T08:00:47.534Z,98392.31
2023-05-14T08:03:13.994Z,98387.03
2023-05-14T08:05:40.402Z,98380.34
2023-05-14T08:08:06.751Z,98368.88
2023-05-14T08:10:33.106Z,98382.59
2023-05-14T08:12:59.497Z,98374.84
2023-05-14T08:15:27.732Z,98382.94
2023-05-14T08:17:54.465Z,98375.09
2023-05-14T08:20:20.966Z,98371.84
2023-05-14T08:22:47.347Z,98372.59
2023-05-14T08:25:13.695Z,98356.63
2023-05-14T08:27:40.071Z,98360.94
2023-05-14T08:30:06.900Z,98372.41
2023-05-14T08:32:33.234Z,98367.47
2023-05-14T08:34:59.654Z,98368.38
2023-05-14T08:37:25.986Z,98366.13
2023-05-14T08:39:52.370Z,98362.28
2023-05-14T08:42:20.752Z,98363.84
2023-05-14T08:44:48.982Z,98359.88
2023-05-14T08:47:15.970Z,98367.47
2023-05-14T08:49:44.000Z,98359.88
2023-05-14T08:52:10.692Z,98355.34
2023-05-14T08:54:37.090Z,98361.75
2023-05-14T08:57:04.614Z,98338.78
2023-05-14T08:59:31.247Z,98354.59
2023-05-14T09:02:01.907Z,98332.22
2023-05-14T09:04:28.347Z,98335.19
2023-05-14T09:06:55.193Z,98348.09
2023-05-14T09:09:21.776Z,98363.66
2023-05-14T09:11:49.176Z,98349.81
2023-05-14T09:14:15.588Z,98354.28
2023-05-14T09:16:45.446Z,98341.00
2023-05-14T09:19:13.000Z,98343.72
2023-05-14T09:21:40.257Z,98320.81
2023-05-14T09:24:07.136Z,98339.94
2023-05-14T09:26:34.843Z,98340.31
2023-05-14T09:29:02.047Z,98340.16
2023-05-14T09:31:32.893Z,98321.19
2023-05-14T09:34:00.013Z,98334.72
2023-05-14T09:36:27.634Z,98329.81
2023-05-14T09:38:56.723Z,98329.16
2023-05-14T09:41:23.057Z,98310.06
2023-05-14T09:43:50.540Z,98324.91
2023-05-14T09:46:17.079Z,98323.66
2023-05-14T09:48:43.512Z,98322.97
2023-05-14T09:51:10.164Z,98295.25
2023-05-14T09:53:37.083Z,98306.28
2023-05-14T09:56:03.498Z,98305.31
2023-05-14T09:58:30.852Z,98281.13
2023-05-14T10:00:57.772Z,98310.88
2023-05-14T10:03:25.949Z,98304.91
2023-05-14T10:05:52.529Z,98278.47
2023-05-14T10:08:25.095Z,98292.44
2023-05-14T10:10:51.578Z,98292.97
2023-05-14T10:13:20.845Z,98292.75
2023-05-14T10:16:12.590Z,98287.97
2023-05-14T10:18:43.851Z,98287.50
2023-05-14T10:21:10.485Z,98295.91
2023-05-14T10:23:37.477Z,98285.38
2023-05-14T10:26:04.502Z,98274.38
2023-05-14T10:28:31.940Z,98282.63
2023-05-14T10:30:59.672Z,98267.09
2023-05-14T10:33:27.018Z,98283.69
2023-05-14T10:36:03.516Z,98267.84
2023-05-14T10:38:32.168Z,98265.38
2023-05-14T10:41:04.521Z,98278.47
2023-05-14T10:43:31.480Z,98274.22
2023-05-14T10:45:58.573Z,98272.94
2023-05-14T10:48:25.570Z,98274.75
2023-05-14T10:50:54.096Z,98254.22
2023-05-14T10:53:20.607Z,98252.59
2023-05-14T10:55:46.945Z,98267.53
2023-05-14T10:58:13.402Z,98269.00
2023-05-14T11:00:40.676Z,98262.13
2023-05-14T11:03:07.256Z,98262.88
2023-05-14T11:05:33.972Z,98270.00
2023-05-14T11:08:03.819Z,98251.06
2023-05-14T11:10:30.692Z,98245.63
2023-05-14T11:12:57.561Z,98254.88
2023-05-14T11:15:25.307Z,98233.22
2023-05-14T11:17:53.249Z,98239.81
2023-05-14T11:20:20.381Z,98226.00
2023-05-14T11:22:49.004Z,98246.25
2023-05-14T11:25:15.422Z,98229.28
2023-05-14T11:27:43.696Z,98220.63
2023-05-14T11:30:13.983Z,98225.91
2023-05-14T11:32:40.424Z,98232.47
2023-05-14T11:35:07.105Z,98227.84
2023-05-14T11:37:33.488Z,98224.56
2023-05-14T11:40:01.040Z,98232.72
2023-05-14T11:42:27.387Z,98213.53
2023-05-14T11:44:53.844Z,98197.59
2023-05-14T11:47:21.733Z,98209.03
2023-05-14T11:49:48.895Z,98205.66
2023-05-14T11:52:16.102Z,98200.38
2023-05-14T11:54:43.534Z,98203.69
2023-05-14T11:57:11.837Z,98210.69
2023-05-14T11:59:39.055Z,98214.78
2023-05-14T12:02:10.113Z,98211.50
2023-05-14T12:04:36.546Z,98198.34
2023-05-14T12:07:11.138Z,98204.63
2023-05-14T12:09:41.499Z,98198.69
2023-05-14T12:12:10.725Z,98202.91
2023-05-14T12:14:42.213Z,98200.22
2023-05-14T12:17:16.486Z,98205.38
2023-05-14T12:19:43.797Z,98197.84
2023-05-14T12:22:11.603Z,98202.97
2023-05-14T12:24:38.072Z,98200.22
2023-05-14T12:27:04.863Z,98201.03
2023-05-14T12:29:31.216Z,98187.25
2023-05-14T12:31:57.953Z,98183.00
2023-05-14T12:34:24.332Z,98202.91
2023-05-14T12:36:50.725Z,98187.03
2023-05-14T12:39:17.593Z,98194.03
2023-05-14T12:41:44.008Z,98187.28
2023-05-14T12:44:10.367Z,98175.03
2023-05-14T12:46:36.965Z,98176.47
2023-05-14T12:49:03.437Z,98155.78
2023-05-14T12:51:29.833Z,98175.78
2023-05-14T12:53:56.187Z,98165.31
2023-05-14T12:56:22.520Z,98166.69
2023-05-14T12:58:48.857Z,98169.63
2023-05-14T13:01:15.304Z,98173.00
2023-05-14T13:03:41.678Z,98167.31
2023-05-14T13:06:08.109Z,98150.41
2023-05-14T13:08:35.359Z,98174.44
2023-05-14T13:11:01.741Z,98166.75
2023-05-14T13:13:28.080Z,98176.84
2023-05-14T13:15:54.428Z,98153.00
2023-05-14T13:18:21.001Z,98166.28
2023-05-14T13:20:47.614Z,98161.72
2023-05-14T13:23:14.535Z,98158.34
2023-05-14T13:25:40.889Z,98157.28
2023-05-14T13:28:08.341Z,98159.53
2023-05-14T13:30:34.698Z,98145.03
2023-05-14T13:33:01.110Z,98152.72
2023-05-14T13:35:27.459Z,98134.50
2023-05-14T13:37:53.946Z,98145.25
2023-05-14T13:40:20.301Z,98144.38
2023-05-14T13:42:46.739Z,98132.34
2023-05-14T13:45:13.114Z,98142.25
2023-05-14T13:47:40.565Z,98137.03
2023-05-14T13:50:07.392Z,98132.38
2023-05-14T13:52:33.699Z,98127.03
2023-05-14T13:55:00.049Z,98134.81
2023-05-14T13:57:26.392Z,98128.03
2023-05-14T13:59:52.789Z,98131.97
2023-05-14T14:02:19.125Z,98132.56
2023-05-14T14:04:45.521Z,98128.13
2023-05-14T14:07:11.845Z,98124.81
2023-05-14T14:09:38.175Z,98126.03
2023-05-14T14:12:04.992Z,98111.66
2023-05-14T14:14:31.555Z,98131.97
2023-05-14T14:16:57.890Z,98142.94
2023-05-14T14:19:24.287Z,98148.28
2023-05-14T14:24:21.870Z,98152.78
2023-05-14T14:26:48.268Z,98154.56
2023-05-14T14:29:14.602Z,98147.06
2023-05-14T14:31:40.948Z,98133.50
2023-05-14T14:34:07.347Z,98146.34
2023-05-14T14:36:33.695Z,98147.72
2023-05-14T14:39:00.039Z,98144.69
2023-05-14T14:41:26.361Z,98159.44
2023-05-14T14:43:52.792Z,98148.13
2023-05-14T14:46:19.129Z,98132.19
2023-05-14T14:48:45.485Z,98127.59
2023-05-14T14:51:11.814Z,98144.41
2023-05-14T14:53:38.177Z,98119.94
2023-05-14T14:56:04.802Z,98148.03
2023-05-14T14:58:31.210Z,98134.28
2023-05-14T15:00:57.851Z,98137.72
2023-05-14T15:03:25.077Z,98138.56
2023-05-14T15:05:51.682Z,98135.59
2023-05-14T15:08:18.012Z,98128.00
2023-05-14T15:10:45.060Z,98123.78
2023-05-14T15:13:12.247Z,98132.56
2023-05-14T15:15:38.607Z,98126.50
2023-05-14T15:18:06.100Z,98128.44
2023-05-14T15:20:32.504Z,98133.06
2023-05-14T15:22:58.862Z,98129.25
2023-05-14T15:25:26.722Z,98136.13
2023-05-14T15:27:53.260Z,98127.72
2023-05-14T15:30:19.781Z,98131.53
2023-05-14T15:32:46.202Z,98126.97
2023-05-14T15:35:12.889Z,98135.38
2023-05-14T15:37:41.205Z,98127.75
2023-05-14T15:40:08.148Z,98140.28
2023-05-14T15:42:38.819Z,98136.88
2023-05-14T15:45:05.742Z,98131.91
2023-05-14T15:47:33.170Z,98113.22
2023-05-14T15:49:59.932Z,98145.22
2023-05-14T15:52:26.659Z,98139.91
2023-05-14T15:54:53.099Z,98142.56
2023-05-14T15:57:20.163Z,98139.09
2023-05-14T15:59:47.040Z,98149.81
2023-05-14T16:02:13.833Z,98136.84
2023-05-14T16:04:40.208Z,98134.56
2023-05-14T16:07:09.701Z,98140.66
2023-05-14T16:09:36.665Z,98143.66
2023-05-14T16:12:03.247Z,98143.66
2023-05-14T16:14:29.604Z,98138.69
2023-05-14T16:16:56.122Z,98136.34
2023-05-14T16:19:22.528Z,98137.50
2023-05-14T16:21:48.869Z,98133.28
2023-05-14T16:24:17.648Z,98115.34
2023-05-14T16:26:44.105Z,98126.78
2023-05-14T16:29:10.427Z,98123.34
2023-05-14T16:31:36.797Z,98124.84
2023-05-14T16:34:03.134Z,98115.72
2023-05-14T16:36:29.587Z,98098.56
2023-05-14T16:39:06.657Z,98105.44
2023-05-14T16:41:34.593Z,98118.34
2023-05-14T16:44:00.969Z,98115.69
2023-05-14T16:46:27.414Z,98117.22
2023-05-14T16:48:53.819Z,98101.56
2023-05-14T16:51:20.146Z,98109.94
2023-05-14T16:53:46.618Z,98105.00
2023-05-14T16:56:12.947Z,98099.66
2023-05-14T16:58:39.362Z,98106.13
2023-05-14T17:01:08.692Z,98115.25
2023-05-14T17:03:35.959Z,98097.69
2023-05-14T17:06:02.333Z,98103.84
2023-05-14T17:08:28.679Z,98104.56
2023-05-14T17:10:55.007Z,98098.84
2023-05-14T17:13:21.344Z,98093.44
2023-05-14T17:15:47.690Z,98078.56
2023-05-14T17:18:14.111Z,98087.78
2023-05-14T17:20:40.452Z,98093.56
2023-05-14T17:23:06.795Z,98082.13
2023-05-14T17:25:33.230Z,98094.69
2023-05-14T17:27:59.592Z,98093.06
2023-05-14T17:30:25.923Z,98091.63
2023-05-14T17:32:52.344Z,98080.19
2023-05-14T17:35:18.725Z,98067.22
2023-05-14T17:37:45.079Z,98074.94
2023-05-14T17:40:11.888Z,98074.50
2023-05-14T17:42:38.277Z,98052.00
2023-05-14T17:45:05.022Z,98073.41
2023-05-14T17:47:31.398Z,98065.75
2023-05-14T17:49:57.779Z,98072.59
2023-05-14T17:52:24.106Z,98074.13
2023-05-14T17:54:50.435Z,98071.47
2023-05-14T17:57:17.891Z,98065.00
2023-05-14T17:59:44.231Z,98071.47
2023-05-14T18:02:10.593Z,98059.66
2023-05-14T18:04:36.936Z,98056.25
2023-05-14T18:07:03.277Z,98063.47
2023-05-14T18:09:29.609Z,98061.94
2023-05-14T18:11:57.036Z,98050.91
2023-05-14T18:14:23.530Z,98055.09
2023-05-14T18:16:49.928Z,98062.78
2023-05-14T18:19:16.494Z,98068.84
2023-05-14T18:21:42.881Z,98069.22
2023-05-14T18:24:09.203Z,98055.88
2023-05-14T18:26:36.095Z,98067.69
2023-05-14T18:29:02.439Z,98066.16
2023-05-14T18:31:29.884Z,98055.91
2023-05-14T18:33:56.230Z,98049.00
2023-05-14T18:36:22.579Z,98057.41
2023-05-14T18:38:48.934Z,98064.28
2023-05-14T18:41:15.579Z,98066.56
2023-05-14T18:43:41.901Z,98071.88
2023-05-14T18:46:08.458Z,98057.44
2023-05-14T18:48:34.911Z,98063.53
2023-05-14T18:51:01.245Z,98058.94
2023-05-14T18:53:27.561Z,98063.53
2023-05-14T18:55:53.889Z,98058.94
2023-05-14T18:58:20.323Z,98078.72
2023-05-14T19:00:46.659Z,98073.25
2023-05-14T19:03:13.055Z,98077.44
2023-05-14T19:05:39.467Z,98077.31
2023-05-14T19:08:05.780Z,98080.38
2023-05-14T19:10:32.111Z,98080.84
2023-05-14T19:12:58.441Z,98081.28
2023-05-14T19:15:25.133Z,98090.38
2023-05-14T19:17:51.741Z,98082.44
2023-05-14T19:20:18.114Z,98080.88
2023-05-14T19:22:44.439Z,98072.41
2023-05-14T19:25:10.864Z,98076.75
2023-05-14T19:27:38.057Z,98080.81
2023-05-14T19:30:04.827Z,98072.97
2023-05-14T19:32:31.173Z,98073.16
2023-05-14T19:34:57.510Z,98075.47
2023-05-14T19:37:23.840Z,98079.22
2023-05-14T19:39:51.265Z,98080.41
2023-05-14T19:42:17.601Z,98076.97
2023-05-14T19:44:43.928Z,98078.09
2023-05-14T19:47:10.359Z,98074.31
2023-05-14T19:49:36.811Z,98071.19
2023-05-14T19:52:04.379Z,98071.59
2023-05-14T19:54:30.720Z,98068.28
2023-05-14T19:56:57.082Z,98066.28
2023-05-14T19:59:23.414Z,98069.28
2023-05-14T20:01:56.938Z,98067.41
2023-05-14T20:04:23.779Z,98068.84
2023-05-14T20:06:50.510Z,98059.63
2023-05-14T20:09:17.246Z,98064.19
2023-05-14T20:11:43.949Z,98051.97
2023-05-14T20:14:12.025Z,98052.75
2023-05-14T20:16:38.796Z,98053.31
2023-05-14T20:19:05.702Z,98056.34
2023-05-14T20:21:32.548Z,98058.53
2023-05-14T20:23:59.327Z,98044.03
2023-05-14T20:26:25.965Z,98047.41
2023-05-14T20:28:52.657Z,98042.47
2023-05-14T20:31:19.297Z,98045.09
2023-05-14T20:33:45.915Z,98046.22
2023-05-14T20:36:13.480Z,98033.34
2023-05-14T20:38:40.154Z,98028.88
2023-05-14T20:41:07.017Z,98037.22
2023-05-14T20:43:34.725Z,98037.13
2023-05-14T20:46:01.375Z,98027.22
2023-05-14T20:48:28.706Z,98039.31
2023-05-14T20:50:55.341Z,98023.16
2023-05-14T20:53:30.651Z,98026.69
2023-05-14T20:55:57.267Z,98020.50
2023-05-14T20:58:23.929Z,98018.22
2023-05-14T21:00:50.595Z,98024.97
2023-05-14T21:03:17.353Z,98032.53
2023-05-14T21:05:44.059Z,98019.91
2023-05-14T21:08:11.773Z,98010.16
2023-05-14T21:10:39.632Z,98016.72
2023-05-14T21:13:18.216Z,98009.44
2023-05-14T21:15:44.904Z,98012.03
2023-05-14T21:18:12.653Z,98015.63
2023-05-14T21:20:40.237Z,98003.88
2023-05-14T21:23:07.200Z,97990.84
2023-05-14T21:25:36.296Z,98013.00
2023-05-14T21:28:03.116Z,98008.06
2023-05-14T21:30:31.712Z,98012.22
2023-05-14T21:32:58.467Z,98011.44
2023-05-14T21:35:25.751Z,98007.94
2023-05-14T21:37:56.139Z,98019.00
2023-05-14T21:40:23.004Z,98009.50
2023-05-14T21:42:52.250Z,97986.63
2023-05-14T21:45:22.240Z,98007.88
2023-05-14T21:47:55.268Z,98011.22
2023-05-14T21:50:22.010Z,98011.56
2023-05-14T21:52:48.889Z,98002.44
2023-05-14T21:55:16.520Z,97994.59
2023-05-14T21:57:43.138Z,97984.09
2023-05-14T22:00:10.202Z,97988.00
2023-05-14T22:02:37.044Z,97988.81
2023-05-14T22:05:03.872Z,97991.06
2023-05-14T22:07:33.022Z,97982.59
2023-05-14T22:09:59.801Z,97985.53
2023-05-14T22:12:32.448Z,97983.28
2023-05-14T22:14:59.147Z,97980.97
2023-05-14T22:17:27.948Z,97983.19
2023-05-14T22:19:54.653Z,97977.06
2023-05-14T22:22:21.449Z,97974.84
2023-05-14T22:24:58.282Z,97977.50
2023-05-14T22:27:25.232Z,97978.66
2023-05-14T22:29:51.870Z,97969.50
2023-05-14T22:32:18.601Z,97974.13
2023-05-14T22:34:45.315Z,97972.25
2023-05-14T22:37:16.294Z,97965.91
2023-05-14T22:39:43.540Z,97977.56
2023-05-14T22:42:10.268Z,97971.03
2023-05-14T22:44:37.149Z,97959.00
2023-05-14T22:47:04.354Z,97954.81
2023-05-14T22:49:31.498Z,97957.94
2023-05-14T22:51:58.159Z,97951.47
2023-05-14T22:54:25.902Z,97951.75
2023-05-14T22:56:53.851Z,97945.31
2023-05-14T22:59:22.066Z,97946.09
2023-05-14T23:01:51.418Z,97934.78
2023-05-14T23:04:18.146Z,97933.94
2023-05-14T23:06:44.772Z,97933.59
2023-05-14T23:09:11.382Z,97933.78
2023-05-14T23:11:38.067Z,97936.63
2023-05-14T23:14:04.759Z,97929.94
2023-05-14T23:16:31.398Z,97925.44
2023-05-14T23:18:58.132Z,97919.06
2023-05-14T23:21:24.901Z,97922.75
2023-05-14T23:23:51.922Z,97927.97
2023-05-14T23:26:18.589Z,97928.31
2023-05-14T23:28:55.230Z,97910.13
2023-05-14T23:31:21.902Z,97924.75
2023-05-14T23:33:48.692Z,97917.94
2023-05-14T23:36:15.485Z,97913.31
2023-05-14T23:38:42.462Z,97904.09
2023-05-14T23:41:09.241Z,97903.78
2023-05-14T23:43:36.052Z,97912.75
2023-05-14T23:46:02.798Z,97902.03
2023-05-14T23:48:29.664Z,97899.34
2023-05-14T23:50:57.284Z,97900.50
2023-05-14T23:53:23.855Z,97899.09
2023-05-14T23:55:50.788Z,97902.00
2023-05-14T23:58:17.546Z,97893.47
